Warning: Javascript must be enabled to use all the features on this page!


Page Loading - Please Wait...

Click to hideNews Bulletins
Click to hide state-specific text

Welcome to the NWIS-Web for the Arizona Water Science Center


The majority of USGS Gaging Stations are funded though a cooperative program between the USGS other interested agencies.
Follow this link for information on the Cooperative Water Program with the USGS.


Threatened and Endangered USGS Gaging Stations in Arizona
Colorado Basin River Forecast Center - provided by the National Weather Service, AHPS. CBRFC on Google Maps.
Arizona Water Science Center Home Page

USGS 09471000 SAN PEDRO RIVER AT CHARLESTON, AZ.

PROVISIONAL DATA SUBJECT TO REVISION

Click to hidestation-specific text
Station operated in cooperation with Cochise County, the Bureau of Land Management, and the Arizona Department of Water Resources.

HIGH DATA RATE (Site data are transmitted & updated hourly)
rainfall Arrow
This station managed by the Tucson Field Office; USGS, AZ-WSC.

Available Parameters Available Period
All 4 Available Parameters for this site
  
00065 Gage height [Radar Stage Sensor] 2014-11-30  2015-03-29
00065 Gage height [Bubbler Stage Sensor] 2007-10-01  2015-03-29
00060 Discharge 2007-10-01  2015-03-29
00045 Precipitation 2014-11-30  2015-03-29

Graph
Graph w/ stats
Graph w/o stats
Graph w/ (up to 3) parms
Table
Tab-separated
Days  (7)
 

  -- or --
Begin date
 

End date
 

Summary of all available data for this site
Instantaneous-data availability statement






Date / Time




Gage
height,
feet,
[Radar
Stage
Sensor]




Gage
height,
feet,
[Bubbler
Stage
Sensor]




Dis-
charge,
ft3/s,



Precip-
itation
total,
inches,
03/23/2015 00:00 MST2.30P  2.30P  15.4P  0.00P  
03/23/2015 00:15 MST2.30P  2.30P  15.4P  0.00P  
03/23/2015 00:30 MST2.30P  2.30P  15.4P  0.00P  
03/23/2015 00:45 MST2.30P  2.30P  15.4P  0.00P  
03/23/2015 01:00 MST2.30P  2.30P  15.4P  0.00P  
03/23/2015 01:15 MST2.31P  2.30P  16.0P  0.00P  
03/23/2015 01:30 MST2.31P  2.31P  16.0P  0.00P  
03/23/2015 01:45 MST2.30P  2.30P  15.4P  0.00P  
03/23/2015 02:00 MST2.31P  2.30P  16.0P  0.00P  
03/23/2015 02:15 MST2.31P  2.30P  16.0P  0.00P  
03/23/2015 02:30 MST2.31P  2.30P  16.0P  0.00P  
03/23/2015 02:45 MST2.31P  2.31P  16.0P  0.00P  
03/23/2015 03:00 MST2.31P  2.31P  16.0P  0.00P  
03/23/2015 03:15 MST2.31P  2.30P  16.0P  0.00P  
03/23/2015 03:30 MST2.31P  2.30P  16.0P  0.00P  
03/23/2015 03:45 MST2.31P  2.30P  16.0P  0.00P  
03/23/2015 04:00 MST2.31P  2.30P  16.0P  0.00P  
03/23/2015 04:15 MST2.31P  2.30P  16.0P  0.00P  
03/23/2015 04:30 MST2.31P  2.30P  16.0P  0.00P  
03/23/2015 04:45 MST2.30P  2.30P  15.4P  0.00P  
03/23/2015 05:00 MST2.30P  2.30P  15.4P  0.00P  
03/23/2015 05:15 MST2.31P  2.30P  16.0P  0.00P  
03/23/2015 05:30 MST2.30P  2.30P  15.4P  0.00P  
03/23/2015 05:45 MST2.30P  2.30P  15.4P  0.00P  
03/23/2015 06:00 MST2.31P  2.30P  16.0P  0.00P  
03/23/2015 06:15 MST2.31P  2.30P  16.0P  0.00P  
03/23/2015 06:30 MST2.31P  2.30P  16.0P  0.00P  
03/23/2015 06:45 MST2.31P  2.30P  16.0P  0.00P  
03/23/2015 07:00 MST2.31P  2.30P  16.0P  0.00P  
03/23/2015 07:15 MST2.31P  2.30P  16.0P  0.00P  
03/23/2015 07:30 MST2.31P  2.30P  16.0P  0.00P  
03/23/2015 07:45 MST2.30P  2.30P  15.4P  0.00P  
03/23/2015 08:00 MST2.31P  2.30P  16.0P  0.00P  
03/23/2015 08:15 MST2.30P  2.30P  15.4P  0.00P  
03/23/2015 08:30 MST2.30P  2.30P  15.4P  0.00P  
03/23/2015 08:45 MST2.31P  2.29P  16.0P  0.00P  
03/23/2015 09:00 MST2.30P  2.30P  15.4P  0.00P  
03/23/2015 09:15 MST2.30P  2.30P  15.4P  0.00P  
03/23/2015 09:30 MST2.30P  2.30P  15.4P  0.00P  
03/23/2015 09:45 MST2.30P  2.30P  15.4P  0.00P  
03/23/2015 10:00 MST2.30P  2.29P  15.4P  0.00P  
03/23/2015 10:15 MST2.30P  2.30P  15.4P  0.00P  
03/23/2015 10:30 MST2.30P  2.30P  15.4P  0.00P  
03/23/2015 10:45 MST2.30P  2.29P  15.4P  0.00P  
03/23/2015 11:00 MST2.30P  2.30P  15.4P  0.00P  
03/23/2015 11:15 MST2.30P  2.30P  15.4P  0.00P  
03/23/2015 11:30 MST2.30P  2.29P  15.4P  0.00P  
03/23/2015 11:45 MST2.30P  2.29P  15.4P  0.00P  
03/23/2015 12:00 MST2.30P  2.29P  15.4P  0.00P  
03/23/2015 12:15 MST2.30P  2.30P  15.4P  0.00P  
03/23/2015 12:30 MST2.30P  2.30P  15.4P  0.00P  
03/23/2015 12:45 MST2.30P  2.30P  15.4P  0.00P  
03/23/2015 13:00 MST2.30P  2.30P  15.4P  0.00P  
03/23/2015 13:15 MST2.30P  2.29P  15.4P  0.00P  
03/23/2015 13:30 MST2.30P  2.29P  15.4P  0.00P  
03/23/2015 13:45 MST2.27P  2.29P  13.6P  0.00P  
03/23/2015 14:00 MST2.29P  2.29P  14.8P  0.00P  
03/23/2015 14:15 MST2.28P  2.28P  14.2P  0.00P  
03/23/2015 14:30 MST2.28P  2.28P  14.2P  0.00P  
03/23/2015 14:45 MST2.28P  2.28P  14.2P  0.00P  
03/23/2015 14:59 MST2.28P  2.27P  14.2P  0.00P  
03/23/2015 15:00 MST2.28P  2.27P  14.2P  0.00P  
03/23/2015 15:14 MST2.27P  2.28P  13.6P  0.00P  
03/23/2015 15:15 MST2.27P  2.28P  13.6P  0.00P  
03/23/2015 15:30 MST2.28P  2.27P  14.2P  0.00P  
03/23/2015 15:45 MST2.28P  2.28P  14.2P  0.00P  
03/23/2015 16:00 MST2.29P  2.27P  14.8P  0.00P  
03/23/2015 16:15 MST2.28P  2.28P  14.2P  0.00P  
03/23/2015 16:30 MST2.29P  2.27P  14.8P  0.00P  
03/23/2015 16:45 MST2.28P  2.27P  14.2P  0.00P  
03/23/2015 17:00 MST2.28P  2.28P  14.2P  0.00P  
03/23/2015 17:15 MST   2.28P     0.00P  
03/23/2015 17:30 MST2.28P  2.28P  14.2P  0.00P  
03/23/2015 17:45 MST2.28P  2.28P  14.2P  0.00P  
03/23/2015 18:00 MST2.28P  2.28P  14.2P  0.00P  
03/23/2015 18:15 MST2.28P  2.28P  14.2P  0.00P  
03/23/2015 18:30 MST2.29P  2.28P  14.8P  0.00P  
03/23/2015 18:45 MST2.29P  2.28P  14.8P  0.00P  
03/23/2015 19:00 MST2.29P  2.28P  14.8P  0.00P  
03/23/2015 19:15 MST2.29P  2.28P  14.8P  0.00P  
03/23/2015 19:30 MST2.29P  2.28P  14.8P  0.00P  
03/23/2015 19:45 MST2.29P  2.29P  14.8P  0.00P  
03/23/2015 20:00 MST2.29P  2.28P  14.8P  0.00P  
03/23/2015 20:15 MST2.29P  2.28P  14.8P  0.00P  
03/23/2015 20:30 MST2.29P  2.29P  14.8P  0.00P  
03/23/2015 20:45 MST2.29P  2.28P  14.8P  0.00P  
03/23/2015 21:00 MST2.29P  2.29P  14.8P  0.00P  
03/23/2015 21:15 MST2.29P  2.28P  14.8P  0.00P  
03/23/2015 21:30 MST2.29P  2.28P  14.8P  0.00P  
03/23/2015 21:45 MST2.30P  2.29P  15.4P  0.00P  
03/23/2015 22:00 MST2.29P  2.29P  14.8P  0.00P  
03/23/2015 22:15 MST2.29P  2.29P  14.8P  0.00P  
03/23/2015 22:30 MST2.29P  2.29P  14.8P  0.00P  
03/23/2015 22:45 MST2.29P  2.29P  14.8P  0.00P  
03/23/2015 23:00 MST2.30P  2.28P  15.4P  0.00P  
03/23/2015 23:15 MST2.29P  2.28P  14.8P  0.00P  
03/23/2015 23:30 MST2.29P  2.28P  14.8P  0.00P  
03/23/2015 23:45 MST2.30P  2.28P  15.4P  0.00P  
03/24/2015 00:00 MST2.29P  2.28P  14.8P  0.00P  
03/24/2015 00:15 MST2.29P  2.29P  14.8P  0.00P  
03/24/2015 00:30 MST2.29P  2.29P  14.8P  0.00P  
03/24/2015 00:45 MST2.29P  2.28P  14.8P  0.00P  
03/24/2015 01:00 MST2.29P  2.29P  14.8P  0.00P  
03/24/2015 01:15 MST2.29P  2.28P  14.8P  0.00P  
03/24/2015 01:30 MST2.29P  2.29P  14.8P  0.00P  
03/24/2015 01:45 MST2.29P  2.29P  14.8P  0.00P  
03/24/2015 02:00 MST2.29P  2.29P  14.8P  0.00P  
03/24/2015 02:15 MST2.29P  2.28P  14.8P  0.00P  
03/24/2015 02:30 MST2.29P  2.29P  14.8P  0.00P  
03/24/2015 02:45 MST2.29P  2.28P  14.8P  0.00P  
03/24/2015 03:00 MST2.29P  2.28P  14.8P  0.00P  
03/24/2015 03:15 MST2.29P  2.29P  14.8P  0.00P  
03/24/2015 03:30 MST2.29P  2.28P  14.8P  0.00P  
03/24/2015 03:45 MST2.29P  2.28P  14.8P  0.00P  
03/24/2015 04:00 MST2.29P  2.29P  14.8P  0.00P  
03/24/2015 04:15 MST2.29P  2.29P  14.8P  0.00P  
03/24/2015 04:30 MST2.29P  2.28P  14.8P  0.00P  
03/24/2015 04:45 MST2.29P  2.28P  14.8P  0.00P  
03/24/2015 05:00 MST2.29P  2.28P  14.8P  0.00P  
03/24/2015 05:15 MST2.29P  2.29P  14.8P  0.00P  
03/24/2015 05:30 MST2.29P  2.29P  14.8P  0.00P  
03/24/2015 05:45 MST2.29P  2.28P  14.8P  0.00P  
03/24/2015 06:00 MST2.29P  2.27P  14.8P  0.00P  
03/24/2015 06:15 MST2.29P  2.28P  14.8P  0.00P  
03/24/2015 06:30 MST2.29P  2.28P  14.8P  0.00P  
03/24/2015 06:45 MST2.29P  2.28P  14.8P  0.00P  
03/24/2015 07:00 MST2.29P  2.29P  14.8P  0.00P  
03/24/2015 07:15 MST2.29P  2.28P  14.8P  0.00P  
03/24/2015 07:30 MST2.29P  2.29P  14.8P  0.00P  
03/24/2015 07:45 MST2.29P  2.28P  14.8P  0.00P  
03/24/2015 08:00 MST2.29P  2.28P  14.8P  0.00P  
03/24/2015 08:15 MST2.29P  2.28P  14.8P  0.00P  
03/24/2015 08:30 MST2.29P  2.28P  14.8P  0.00P  
03/24/2015 08:45 MST2.29P  2.27P  14.8P  0.00P  
03/24/2015 09:00 MST2.29P  2.28P  14.8P  0.00P  
03/24/2015 09:15 MST2.29P  2.29P  14.8P  0.00P  
03/24/2015 09:30 MST2.29P  2.28P  14.8P  0.00P  
03/24/2015 09:45 MST2.30P  2.29P  15.4P  0.00P  
03/24/2015 10:00 MST2.29P  2.28P  14.8P  0.00P  
03/24/2015 10:15 MST2.29P  2.29P  14.8P  0.00P  
03/24/2015 10:30 MST2.29P  2.28P  14.8P  0.00P  
03/24/2015 10:45 MST2.29P  2.28P  14.8P  0.00P  
03/24/2015 11:00 MST2.29P  2.28P  14.8P  0.00P  
03/24/2015 11:15 MST2.29P  2.28P  14.8P  0.00P  
03/24/2015 11:30 MST2.29P  2.28P  14.8P  0.00P  
03/24/2015 11:45 MST2.29P  2.27P  14.8P  0.00P  
03/24/2015 12:00 MST2.29P  2.27P  14.8P  0.00P  
03/24/2015 12:15 MST2.29P  2.28P  14.8P  0.00P  
03/24/2015 12:30 MST2.29P  2.28P  14.8P  0.00P  
03/24/2015 12:45 MST2.28P  2.28P  14.2P  0.00P  
03/24/2015 13:00 MST2.29P  2.27P  14.8P  0.00P  
03/24/2015 13:15 MST2.28P  2.28P  14.2P  0.00P  
03/24/2015 13:30 MST2.29P  2.28P  14.8P  0.00P  
03/24/2015 13:45 MST2.28P  2.27P  14.2P  0.00P  
03/24/2015 14:00 MST2.28P  2.28P  14.2P  0.00P  
03/24/2015 14:15 MST2.28P  2.28P  14.2P  0.00P  
03/24/2015 14:30 MST2.27P  2.27P  13.6P  0.00P  
03/24/2015 14:45 MST2.27P  2.27P  13.6P  0.00P  
03/24/2015 14:59 MST2.28P  2.26P  14.2P  0.00P  
03/24/2015 15:00 MST2.28P  2.26P  14.2P  0.00P  
03/24/2015 15:14 MST2.28P  2.27P  14.2P  0.00P  
03/24/2015 15:15 MST2.28P  2.27P  14.2P  0.00P  
03/24/2015 15:30 MST2.27P  2.27P  13.6P  0.00P  
03/24/2015 15:45 MST2.27P  2.27P  13.6P  0.00P  
03/24/2015 16:00 MST2.28P  2.27P  14.2P  0.00P  
03/24/2015 16:15 MST2.27P  2.27P  13.6P  0.00P  
03/24/2015 16:30 MST2.28P  2.26P  14.2P  0.00P  
03/24/2015 16:45 MST2.28P  2.26P  14.2P  0.00P  
03/24/2015 17:00 MST2.27P  2.26P  13.6P  0.00P  
03/24/2015 17:15 MST2.27P  2.26P  13.6P  0.00P  
03/24/2015 17:30 MST2.26P  2.27P  13.1P  0.00P  
03/24/2015 17:45 MST2.28P  2.27P  14.2P  0.00P  
03/24/2015 18:00 MST2.27P  2.27P  13.6P  0.00P  
03/24/2015 18:15 MST2.28P  2.26P  14.2P  0.00P  
03/24/2015 18:30 MST2.27P  2.27P  13.6P  0.00P  
03/24/2015 18:45 MST2.28P  2.27P  14.2P  0.00P  
03/24/2015 19:00 MST2.28P  2.26P  14.2P  0.00P  
03/24/2015 19:15 MST2.28P  2.27P  14.2P  0.00P  
03/24/2015 19:30 MST2.28P  2.27P  14.2P  0.00P  
03/24/2015 19:45 MST2.28P  2.27P  14.2P  0.00P  
03/24/2015 20:00 MST2.28P  2.27P  14.2P  0.00P  
03/24/2015 20:15 MST2.28P  2.27P  14.2P  0.00P  
03/24/2015 20:30 MST2.28P  2.27P  14.2P  0.00P  
03/24/2015 20:45 MST2.28P  2.26P  14.2P  0.00P  
03/24/2015 21:00 MST2.28P  2.27P  14.2P  0.00P  
03/24/2015 21:15 MST2.28P  2.27P  14.2P  0.00P  
03/24/2015 21:30 MST2.28P  2.27P  14.2P  0.00P  
03/24/2015 21:45 MST2.28P  2.27P  14.2P  0.00P  
03/24/2015 22:00 MST2.28P  2.26P  14.2P  0.00P  
03/24/2015 22:15 MST2.28P  2.26P  14.2P  0.00P  
03/24/2015 22:30 MST2.28P  2.27P  14.2P  0.00P  
03/24/2015 22:45 MST2.28P  2.27P  14.2P  0.00P  
03/24/2015 23:00 MST2.27P  2.26P  13.6P  0.00P  
03/24/2015 23:15 MST2.28P  2.26P  14.2P  0.00P  
03/24/2015 23:30 MST2.28P  2.27P  14.2P  0.00P  
03/24/2015 23:45 MST2.28P  2.27P  14.2P  0.00P  
03/25/2015 00:00 MST2.28P  2.28P  14.2P  0.00P  
03/25/2015 00:15 MST2.28P  2.27P  14.2P  0.00P  
03/25/2015 00:30 MST2.28P  2.28P  14.2P  0.00P  
03/25/2015 00:45 MST2.28P  2.27P  14.2P  0.00P  
03/25/2015 01:00 MST2.28P  2.28P  14.2P  0.00P  
03/25/2015 01:15 MST2.28P  2.28P  14.2P  0.00P  
03/25/2015 01:30 MST2.28P  2.27P  14.2P  0.00P  
03/25/2015 01:45 MST2.28P  2.27P  14.2P  0.00P  
03/25/2015 02:00 MST2.28P  2.27P  14.2P  0.00P  
03/25/2015 02:15 MST2.28P  2.27P  14.2P  0.00P  
03/25/2015 02:30 MST2.28P  2.28P  14.2P  0.00P  
03/25/2015 02:45 MST2.29P  2.27P  14.8P  0.00P  
03/25/2015 03:00 MST2.28P  2.27P  14.2P  0.00P  
03/25/2015 03:15 MST2.28P  2.28P  14.2P  0.00P  
03/25/2015 03:30 MST2.28P  2.27P  14.2P  0.00P  
03/25/2015 03:45 MST2.29P  2.27P  14.8P  0.00P  
03/25/2015 04:00 MST2.28P  2.28P  14.2P  0.00P  
03/25/2015 04:15 MST2.29P  2.28P  14.8P  0.00P  
03/25/2015 04:30 MST2.29P  2.28P  14.8P  0.00P  
03/25/2015 04:45 MST2.29P  2.27P  14.8P  0.00P  
03/25/2015 05:00 MST2.28P  2.27P  14.2P  0.00P  
03/25/2015 05:15 MST2.29P  2.27P  14.8P  0.00P  
03/25/2015 05:30 MST2.29P  2.28P  14.8P  0.00P  
03/25/2015 05:45 MST2.28P  2.28P  14.2P  0.00P  
03/25/2015 06:00 MST2.29P  2.28P  14.8P  0.00P  
03/25/2015 06:15 MST2.29P  2.28P  14.8P  0.00P  
03/25/2015 06:30 MST2.29P  2.27P  14.8P  0.00P  
03/25/2015 06:45 MST2.28P  2.27P  14.2P  0.00P  
03/25/2015 07:00 MST2.28P  2.27P  14.2P  0.00P  
03/25/2015 07:15 MST2.28P  2.28P  14.2P  0.00P  
03/25/2015 07:30 MST2.29P  2.27P  14.8P  0.00P  
03/25/2015 07:45 MST2.29P  2.27P  14.8P  0.00P  
03/25/2015 08:00 MST2.28P  2.28P  14.2P  0.00P  
03/25/2015 08:15 MST2.29P  2.28P  14.8P  0.00P  
03/25/2015 08:30 MST2.29P  2.28P  14.8P  0.00P  
03/25/2015 08:45 MST2.29P  2.28P  14.8P  0.00P  
03/25/2015 09:00 MST2.29P  2.28P  14.8P  0.00P  
03/25/2015 09:15 MST2.29P  2.28P  14.8P  0.00P  
03/25/2015 09:30 MST2.28P  2.28P  14.2P  0.00P  
03/25/2015 09:45 MST2.28P  2.27P  14.2P  0.00P  
03/25/2015 10:00 MST2.28P  2.28P  14.2P  0.00P  
03/25/2015 10:15 MST2.28P  2.28P  14.2P  0.00P  
03/25/2015 10:30 MST2.29P  2.28P  14.8P  0.00P  
03/25/2015 10:45 MST2.29P  2.27P  14.8P  0.00P  
03/25/2015 11:00 MST2.28P  2.28P  14.2P  0.00P  
03/25/2015 11:15 MST2.29P  2.28P  14.8P  0.00P  
03/25/2015 11:30 MST2.28P  2.29P  14.2P  0.00P  
03/25/2015 11:45 MST2.29P  2.29P  14.8P  0.00P  
03/25/2015 12:00 MST2.28P  2.29P  14.2P  0.00P  
03/25/2015 12:15 MST2.28P  2.28P  14.2P  0.00P  
03/25/2015 12:30 MST2.28P  2.28P  14.2P  0.00P  
03/25/2015 12:45 MST2.28P  2.28P  14.2P  0.00P  
03/25/2015 13:00 MST2.28P  2.28P  14.2P  0.00P  
03/25/2015 13:15 MST2.28P  2.27P  14.2P  0.00P  
03/25/2015 13:30 MST2.28P  2.27P  14.2P  0.00P  
03/25/2015 13:45 MST2.28P  2.27P  14.2P  0.00P  
03/25/2015 14:00 MST2.28P  2.27P  14.2P  0.00P  
03/25/2015 14:15 MST2.28P  2.27P  14.2P  0.00P  
03/25/2015 14:30 MST2.28P  2.27P  14.2P  0.00P  
03/25/2015 14:45 MST2.28P  2.27P  14.2P  0.00P  
03/25/2015 14:59 MST   2.27P     0.00P  
03/25/2015 15:00 MST   2.27P     0.00P  
03/25/2015 15:14 MST2.25P  2.27P  12.6P  0.00P  
03/25/2015 15:15 MST2.25P  2.27P  12.6P  0.00P  
03/25/2015 15:30 MST   2.27P     0.00P  
03/25/2015 15:45 MST2.28P  2.27P  14.2P  0.00P  
03/25/2015 16:00 MST2.27P  2.27P  13.6P  0.00P  
03/25/2015 16:15 MST2.27P  2.25P  13.6P  0.00P  
03/25/2015 16:30 MST2.27P  2.26P  13.6P  0.00P  
03/25/2015 16:45 MST2.27P  2.26P  13.6P  0.00P  
03/25/2015 17:00 MST2.27P  2.27P  13.6P  0.00P  
03/25/2015 17:15 MST2.27P  2.26P  13.6P  0.00P  
03/25/2015 17:30 MST2.27P  2.26P  13.6P  0.00P  
03/25/2015 17:45 MST2.27P  2.27P  13.6P  0.00P  
03/25/2015 18:00 MST2.27P  2.26P  13.6P  0.00P  
03/25/2015 18:15 MST2.27P  2.26P  13.6P  0.00P  
03/25/2015 18:30 MST2.27P  2.27P  13.6P  0.00P  
03/25/2015 18:45 MST2.27P  2.25P  13.6P  0.00P  
03/25/2015 19:00 MST2.27P  2.27P  13.6P  0.00P  
03/25/2015 19:15 MST2.27P  2.26P  13.6P  0.00P  
03/25/2015 19:30 MST2.27P  2.27P  13.6P  0.00P  
03/25/2015 19:45 MST2.27P  2.26P  13.6P  0.00P  
03/25/2015 20:00 MST2.28P  2.27P  14.2P  0.00P  
03/25/2015 20:15 MST2.27P  2.25P  13.6P  0.00P  
03/25/2015 20:30 MST2.28P  2.26P  14.2P  0.00P  
03/25/2015 20:45 MST2.28P  2.26P  14.2P  0.00P  
03/25/2015 21:00 MST2.27P  2.26P  13.6P  0.00P  
03/25/2015 21:15 MST2.28P  2.26P  14.2P  0.00P  
03/25/2015 21:30 MST2.28P  2.27P  14.2P  0.00P  
03/25/2015 21:45 MST2.28P  2.27P  14.2P  0.00P  
03/25/2015 22:00 MST2.28P  2.27P  14.2P  0.00P  
03/25/2015 22:15 MST2.28P  2.26P  14.2P  0.00P  
03/25/2015 22:30 MST2.28P  2.27P  14.2P  0.00P  
03/25/2015 22:45 MST2.28P  2.26P  14.2P  0.00P  
03/25/2015 23:00 MST2.28P  2.27P  14.2P  0.00P  
03/25/2015 23:15 MST2.28P  2.26P  14.2P  0.00P  
03/25/2015 23:30 MST2.28P  2.27P  14.2P  0.00P  
03/25/2015 23:45 MST2.28P  2.27P  14.2P  0.00P  
03/26/2015 00:00 MST2.28P  2.27P  14.2P  0.00P  
03/26/2015 00:15 MST2.28P  2.26P  14.2P  0.00P  
03/26/2015 00:30 MST2.28P  2.27P  14.2P  0.00P  
03/26/2015 00:45 MST2.28P  2.26P  14.2P  0.00P  
03/26/2015 01:00 MST2.28P  2.27P  14.2P  0.00P  
03/26/2015 01:15 MST2.28P  2.27P  14.2P  0.00P  
03/26/2015 01:30 MST2.28P  2.27P  14.2P  0.00P  
03/26/2015 01:45 MST2.28P  2.27P  14.2P  0.00P  
03/26/2015 02:00 MST2.28P  2.27P  14.2P  0.00P  
03/26/2015 02:15 MST2.28P  2.27P  14.2P  0.00P  
03/26/2015 02:30 MST2.28P  2.27P  14.2P  0.00P  
03/26/2015 02:45 MST2.28P  2.28P  14.2P  0.00P  
03/26/2015 03:00 MST2.28P  2.27P  14.2P  0.00P  
03/26/2015 03:15 MST2.28P  2.26P  14.2P  0.00P  
03/26/2015 03:30 MST2.28P  2.26P  14.2P  0.00P  
03/26/2015 03:45 MST2.28P  2.27P  14.2P  0.00P  
03/26/2015 04:00 MST2.28P  2.27P  14.2P  0.00P  
03/26/2015 04:15 MST2.28P  2.27P  14.2P  0.00P  
03/26/2015 04:30 MST2.28P  2.28P  14.2P  0.00P  
03/26/2015 04:45 MST2.28P  2.28P  14.2P  0.00P  
03/26/2015 05:00 MST2.28P  2.27P  14.2P  0.00P  
03/26/2015 05:15 MST2.28P  2.27P  14.2P  0.00P  
03/26/2015 05:30 MST2.28P  2.28P  14.2P  0.00P  
03/26/2015 05:45 MST2.28P  2.27P  14.2P  0.00P  
03/26/2015 06:00 MST2.29P  2.27P  14.8P  0.00P  
03/26/2015 06:15 MST2.29P  2.28P  14.8P  0.00P  
03/26/2015 06:30 MST2.29P  2.28P  14.8P  0.00P  
03/26/2015 06:45 MST2.28P  2.28P  14.2P  0.00P  
03/26/2015 07:00 MST2.28P  2.28P  14.2P  0.00P  
03/26/2015 07:15 MST2.28P  2.28P  14.2P  0.00P  
03/26/2015 07:30 MST2.28P  2.27P  14.2P  0.00P  
03/26/2015 07:45 MST2.29P  2.27P  14.8P  0.00P  
03/26/2015 08:00 MST2.28P  2.28P  14.2P  0.00P  
03/26/2015 08:15 MST2.28P  2.28P  14.2P  0.00P  
03/26/2015 08:30 MST2.29P  2.28P  14.8P  0.00P  
03/26/2015 08:45 MST2.28P  2.28P  14.2P  0.00P  
03/26/2015 09:00 MST2.28P  2.28P  14.2P  0.00P  
03/26/2015 09:15 MST2.28P  2.27P  14.2P  0.00P  
03/26/2015 09:30 MST2.29P  2.27P  14.8P  0.00P  
03/26/2015 09:45 MST2.28P  2.28P  14.2P  0.00P  
03/26/2015 10:00 MST2.29P  2.28P  14.8P  0.00P  
03/26/2015 10:15 MST2.28P  2.27P  14.2P  0.00P  
03/26/2015 10:30 MST2.28P  2.28P  14.2P  0.00P  
03/26/2015 10:45 MST2.29P  2.28P  14.8P  0.00P  
03/26/2015 11:00 MST2.28P  2.27P  14.2P  0.00P  
03/26/2015 11:15 MST2.28P  2.28P  14.2P  0.00P  
03/26/2015 11:30 MST2.28P  2.26P  14.2P  0.00P  
03/26/2015 11:45 MST2.28P  2.28P  14.2P  0.00P  
03/26/2015 12:00 MST2.28P  2.27P  14.2P  0.00P  
03/26/2015 12:15 MST2.27P  2.27P  13.6P  0.00P  
03/26/2015 12:30 MST2.28P  2.28P  14.2P  0.00P  
03/26/2015 12:45 MST2.28P  2.27P  14.2P  0.00P  
03/26/2015 13:00 MST2.27P  2.27P  13.6P  0.00P  
03/26/2015 13:15 MST2.28P  2.26P  14.2P  0.00P  
03/26/2015 13:30 MST2.28P  2.27P  14.2P  0.00P  
03/26/2015 13:45 MST2.27P  2.27P  13.6P  0.00P  
03/26/2015 14:00 MST2.27P  2.27P  13.6P  0.00P  
03/26/2015 14:15 MST2.27P  2.26P  13.6P  0.00P  
03/26/2015 14:30 MST2.27P  2.27P  13.6P  0.00P  
03/26/2015 14:45 MST2.27P  2.27P  13.6P  0.00P  
03/26/2015 14:59 MST2.27P  2.26P  13.6P  0.00P  
03/26/2015 15:00 MST2.27P  2.26P  13.6P  0.00P  
03/26/2015 15:14 MST2.27P  2.26P  13.6P  0.00P  
03/26/2015 15:15 MST2.27P  2.26P  13.6P  0.00P  
03/26/2015 15:30 MST2.27P  2.26P  13.6P  0.00P  
03/26/2015 15:45 MST2.27P  2.26P  13.6P  0.00P  
03/26/2015 16:00 MST2.26P  2.27P  13.1P  0.00P  
03/26/2015 16:15 MST2.27P  2.26P  13.6P  0.00P  
03/26/2015 16:30 MST2.26P  2.26P  13.1P  0.00P  
03/26/2015 16:45 MST2.27P  2.25P  13.6P  0.00P  
03/26/2015 17:00 MST2.26P  2.25P  13.1P  0.00P  
03/26/2015 17:15 MST2.26P  2.26P  13.1P  0.00P  
03/26/2015 17:30 MST2.26P  2.26P  13.1P  0.00P  
03/26/2015 17:45 MST2.26P  2.25P  13.1P  0.00P  
03/26/2015 18:00 MST2.26P  2.26P  13.1P  0.00P  
03/26/2015 18:15 MST2.26P  2.26P  13.1P  0.00P  
03/26/2015 18:30 MST2.26P  2.25P  13.1P  0.00P  
03/26/2015 18:45 MST2.26P  2.25P  13.1P  0.00P  
03/26/2015 19:00 MST2.27P  2.26P  13.6P  0.00P  
03/26/2015 19:15 MST2.27P  2.26P  13.6P  0.00P  
03/26/2015 19:30 MST2.27P  2.26P  13.6P  0.00P  
03/26/2015 19:45 MST2.27P  2.27P  13.6P  0.00P  
03/26/2015 20:00 MST2.27P  2.27P  13.6P  0.00P  
03/26/2015 20:15 MST2.27P  2.26P  13.6P  0.00P  
03/26/2015 20:30 MST2.27P  2.27P  13.6P  0.00P  
03/26/2015 20:45 MST2.27P  2.26P  13.6P  0.00P  
03/26/2015 21:00 MST2.28P  2.26P  14.2P  0.00P  
03/26/2015 21:15 MST2.27P  2.27P  13.6P  0.00P  
03/26/2015 21:30 MST2.27P  2.27P  13.6P  0.00P  
03/26/2015 21:45 MST2.27P  2.27P  13.6P  0.00P  
03/26/2015 22:00 MST2.28P  2.26P  14.2P  0.00P  
03/26/2015 22:15 MST2.28P  2.25P  14.2P  0.00P  
03/26/2015 22:30 MST2.27P  2.27P  13.6P  0.00P  
03/26/2015 22:45 MST2.27P  2.26P  13.6P  0.00P  
03/26/2015 23:00 MST2.27P  2.27P  13.6P  0.00P  
03/26/2015 23:15 MST2.27P  2.26P  13.6P  0.00P  
03/26/2015 23:30 MST2.27P  2.26P  13.6P  0.00P  
03/26/2015 23:45 MST2.27P  2.27P  13.6P  0.00P  
03/27/2015 00:00 MST2.27P  2.27P  13.6P  0.00P  
03/27/2015 00:15 MST2.27P  2.27P  13.6P  0.00P  
03/27/2015 00:30 MST2.27P  2.27P  13.6P  0.00P  
03/27/2015 00:45 MST2.27P  2.26P  13.6P  0.00P  
03/27/2015 01:00 MST2.27P  2.27P  13.6P  0.00P  
03/27/2015 01:15 MST2.27P  2.27P  13.6P  0.00P  
03/27/2015 01:30 MST2.28P  2.26P  14.2P  0.00P  
03/27/2015 01:45 MST2.27P  2.27P  13.6P  0.00P  
03/27/2015 02:00 MST2.27P  2.27P  13.6P  0.00P  
03/27/2015 02:15 MST2.27P  2.27P  13.6P  0.00P  
03/27/2015 02:30 MST2.28P  2.26P  14.2P  0.00P  
03/27/2015 02:45 MST2.27P  2.27P  13.6P  0.00P  
03/27/2015 03:00 MST2.27P  2.27P  13.6P  0.00P  
03/27/2015 03:15 MST2.27P  2.26P  13.6P  0.00P  
03/27/2015 03:30 MST2.28P  2.26P  14.2P  0.00P  
03/27/2015 03:45 MST2.28P  2.27P  14.2P  0.00P  
03/27/2015 04:00 MST2.27P  2.26P  13.6P  0.00P  
03/27/2015 04:15 MST2.28P  2.27P  14.2P  0.00P  
03/27/2015 04:30 MST2.27P  2.26P  13.6P  0.00P  
03/27/2015 04:45 MST2.27P  2.27P  13.6P  0.00P  
03/27/2015 05:00 MST2.28P  2.27P  14.2P  0.00P  
03/27/2015 05:15 MST2.28P  2.27P  14.2P  0.00P  
03/27/2015 05:30 MST2.27P  2.26P  13.6P  0.00P  
03/27/2015 05:45 MST2.28P  2.26P  14.2P  0.00P  
03/27/2015 06:00 MST2.28P  2.26P  14.2P  0.00P  
03/27/2015 06:15 MST2.27P  2.26P  13.6P  0.00P  
03/27/2015 06:30 MST2.28P  2.26P  14.2P  0.00P  
03/27/2015 06:45 MST2.28P  2.27P  14.2P  0.00P  
03/27/2015 07:00 MST2.28P  2.26P  14.2P  0.00P  
03/27/2015 07:15 MST2.28P  2.26P  14.2P  0.00P  
03/27/2015 07:30 MST2.27P  2.27P  13.6P  0.00P  
03/27/2015 07:45 MST2.28P  2.26P  14.2P  0.00P  
03/27/2015 08:00 MST2.28P  2.26P  14.2P  0.00P  
03/27/2015 08:15 MST2.28P  2.26P  14.2P  0.00P  
03/27/2015 08:30 MST2.28P  2.26P  14.2P  0.00P  
03/27/2015 08:45 MST2.27P  2.27P  13.6P  0.00P  
03/27/2015 09:00 MST2.28P  2.27P  14.2P  0.00P  
03/27/2015 09:15 MST2.27P  2.27P  13.6P  0.00P  
03/27/2015 09:30 MST2.27P  2.26P  13.6P  0.00P  
03/27/2015 09:45 MST2.27P  2.27P  13.6P  0.00P  
03/27/2015 10:00 MST2.27P  2.27P  13.6P  0.00P  
03/27/2015 10:15 MST2.27P  2.26P  13.6P  0.00P  
03/27/2015 10:30 MST2.28P  2.26P  14.2P  0.00P  
03/27/2015 10:45 MST2.28P  2.26P  14.2P  0.00P  
03/27/2015 11:00 MST2.28P  2.26P  14.2P  0.00P  
03/27/2015 11:15 MST2.27P  2.27P  13.6P  0.00P  
03/27/2015 11:30 MST2.28P  2.26P  14.2P  0.00P  
03/27/2015 11:45 MST2.28P  2.26P  14.2P  0.00P  
03/27/2015 12:00 MST2.27P  2.26P  13.6P  0.00P  
03/27/2015 12:15 MST2.27P  2.26P  13.6P  0.00P  
03/27/2015 12:30 MST2.27P  2.26P  13.6P  0.00P  
03/27/2015 12:45 MST2.27P  2.26P  13.6P  0.00P  
03/27/2015 13:00 MST2.27P  2.26P  13.6P  0.00P  
03/27/2015 13:15 MST2.27P  2.26P  13.6P  0.00P  
03/27/2015 13:30 MST2.27P  2.25P  13.6P  0.00P  
03/27/2015 13:45 MST2.27P  2.25P  13.6P  0.00P  
03/27/2015 14:00 MST2.27P  2.26P  13.6P  0.00P  
03/27/2015 14:15 MST2.27P  2.26P  13.6P  0.00P  
03/27/2015 14:30 MST2.26P  2.26P  13.1P  0.00P  
03/27/2015 14:45 MST2.27P  2.26P  13.6P  0.00P  
03/27/2015 14:59 MST2.26P  2.25P  13.1P  0.00P  
03/27/2015 15:00 MST2.26P  2.25P  13.1P  0.00P  
03/27/2015 15:14 MST2.26P  2.25P  13.1P  0.00P  
03/27/2015 15:15 MST2.26P  2.25P  13.1P  0.00P  
03/27/2015 15:30 MST2.26P  2.25P  13.1P  0.00P  
03/27/2015 15:45 MST2.26P  2.25P  13.1P  0.00P  
03/27/2015 16:00 MST2.26P  2.25P  13.1P  0.00P  
03/27/2015 16:15 MST2.26P  2.24P  13.1P  0.00P  
03/27/2015 16:30 MST2.26P  2.25P  13.1P  0.00P  
03/27/2015 16:45 MST2.25P  2.24P  12.6P  0.00P  
03/27/2015 17:00 MST2.26P  2.25P  13.1P  0.00P  
03/27/2015 17:15 MST2.26P  2.24P  13.1P  0.00P  
03/27/2015 17:30 MST2.25P  2.25P  12.6P  0.00P  
03/27/2015 17:45 MST2.25P  2.24P  12.6P  0.00P  
03/27/2015 18:00 MST2.25P  2.25P  12.6P  0.00P  
03/27/2015 18:15 MST2.25P  2.25P  12.6P  0.00P  
03/27/2015 18:30 MST2.26P  2.25P  13.1P  0.00P  
03/27/2015 18:45 MST2.26P  2.25P  13.1P  0.00P  
03/27/2015 19:00 MST2.26P  2.26P  13.1P  0.00P  
03/27/2015 19:15 MST2.26P  2.26P  13.1P  0.00P  
03/27/2015 19:30 MST2.26P  2.25P  13.1P  0.00P  
03/27/2015 19:45 MST2.26P  2.25P  13.1P  0.00P  
03/27/2015 20:00 MST2.26P  2.25P  13.1P  0.00P  
03/27/2015 20:15 MST2.26P  2.25P  13.1P  0.00P  
03/27/2015 20:30 MST2.26P  2.25P  13.1P  0.00P  
03/27/2015 20:45 MST2.27P  2.25P  13.6P  0.00P  
03/27/2015 21:00 MST2.27P  2.26P  13.6P  0.00P  
03/27/2015 21:15 MST2.27P  2.26P  13.6P  0.00P  
03/27/2015 21:30 MST2.27P  2.26P  13.6P  0.00P  
03/27/2015 21:45 MST2.27P  2.26P  13.6P  0.00P  
03/27/2015 22:00 MST2.27P  2.25P  13.6P  0.00P  
03/27/2015 22:15 MST2.27P  2.26P  13.6P  0.00P  
03/27/2015 22:30 MST2.27P  2.26P  13.6P  0.00P  
03/27/2015 22:45 MST2.27P  2.25P  13.6P  0.00P  
03/27/2015 23:00 MST2.27P  2.26P  13.6P  0.00P  
03/27/2015 23:15 MST2.27P  2.26P  13.6P  0.00P  
03/27/2015 23:30 MST2.27P  2.25P  13.6P  0.00P  
03/27/2015 23:45 MST2.27P  2.25P  13.6P  0.00P  
03/28/2015 00:00 MST2.27P  2.26P  13.6P  0.00P  
03/28/2015 00:15 MST2.27P  2.26P  13.6P  0.00P  
03/28/2015 00:30 MST2.27P  2.26P  13.6P  0.00P  
03/28/2015 00:45 MST2.27P  2.26P  13.6P  0.00P  
03/28/2015 01:00 MST2.27P  2.26P  13.6P  0.00P  
03/28/2015 01:15 MST2.27P  2.25P  13.6P  0.00P  
03/28/2015 01:30 MST2.27P  2.26P  13.6P  0.00P  
03/28/2015 01:45 MST2.26P  2.26P  13.1P  0.00P  
03/28/2015 02:00 MST2.27P  2.26P  13.6P  0.00P  
03/28/2015 02:15 MST2.27P  2.26P  13.6P  0.00P  
03/28/2015 02:30 MST2.27P  2.25P  13.6P  0.00P  
03/28/2015 02:45 MST2.27P  2.26P  13.6P  0.00P  
03/28/2015 03:00 MST2.27P  2.26P  13.6P  0.00P  
03/28/2015 03:15 MST2.27P  2.26P  13.6P  0.00P  
03/28/2015 03:30 MST2.27P  2.26P  13.6P  0.00P  
03/28/2015 03:45 MST2.27P  2.26P  13.6P  0.00P  
03/28/2015 04:00 MST2.27P  2.26P  13.6P  0.00P  
03/28/2015 04:15 MST2.27P  2.26P  13.6P  0.00P  
03/28/2015 04:30 MST2.27P  2.25P  13.6P  0.00P  
03/28/2015 04:45 MST2.27P  2.26P  13.6P  0.00P  
03/28/2015 05:00 MST2.27P  2.26P  13.6P  0.00P  
03/28/2015 05:15 MST2.27P  2.26P  13.6P  0.00P  
03/28/2015 05:30 MST2.27P  2.26P  13.6P  0.00P  
03/28/2015 05:45 MST2.27P  2.26P  13.6P  0.00P  
03/28/2015 06:00 MST2.28P  2.26P  14.2P  0.00P  
03/28/2015 06:15 MST2.27P  2.26P  13.6P  0.00P  
03/28/2015 06:30 MST2.27P  2.26P  13.6P  0.00P  
03/28/2015 06:45 MST2.28P  2.26P  14.2P  0.00P  
03/28/2015 07:00 MST2.27P  2.26P  13.6P  0.00P  
03/28/2015 07:15 MST2.27P  2.26P  13.6P  0.00P  
03/28/2015 07:30 MST2.27P  2.26P  13.6P  0.00P  
03/28/2015 07:45 MST2.28P  2.26P  14.2P  0.00P  
03/28/2015 08:00 MST2.27P  2.26P  13.6P  0.00P  
03/28/2015 08:15 MST2.27P  2.26P  13.6P  0.00P  
03/28/2015 08:30 MST2.27P  2.27P  13.6P  0.00P  
03/28/2015 08:45 MST2.27P  2.26P  13.6P  0.00P  
03/28/2015 09:00 MST2.27P  2.27P  13.6P  0.00P  
03/28/2015 09:15 MST2.27P  2.26P  13.6P  0.00P  
03/28/2015 09:30 MST2.27P  2.26P  13.6P  0.00P  
03/28/2015 09:45 MST2.27P  2.26P  13.6P  0.00P  
03/28/2015 10:00 MST2.27P  2.26P  13.6P  0.00P  
03/28/2015 10:15 MST2.27P  2.26P  13.6P  0.00P  
03/28/2015 10:30 MST2.27P  2.26P  13.6P  0.00P  
03/28/2015 10:45 MST2.27P  2.26P  13.6P  0.00P  
03/28/2015 11:00 MST2.27P  2.26P  13.6P  0.00P  
03/28/2015 11:15 MST2.27P  2.26P  13.6P  0.00P  
03/28/2015 11:30 MST2.27P  2.26P  13.6P  0.00P  
03/28/2015 11:45 MST2.27P  2.26P  13.6P  0.00P  
03/28/2015 12:00 MST2.27P  2.25P  13.6P  0.00P  
03/28/2015 12:15 MST2.27P  2.25P  13.6P  0.00P  
03/28/2015 12:30 MST2.27P  2.26P  13.6P  0.00P  
03/28/2015 12:45 MST2.27P  2.26P  13.6P  0.00P  
03/28/2015 13:00 MST2.27P  2.26P  13.6P  0.00P  
03/28/2015 13:15 MST2.26P  2.25P  13.1P  0.00P  
03/28/2015 13:30 MST2.26P  2.25P  13.1P  0.00P  
03/28/2015 13:45 MST2.26P  2.25P  13.1P  0.00P  
03/28/2015 14:00 MST2.26P  2.25P  13.1P  0.00P  
03/28/2015 14:15 MST2.26P  2.25P  13.1P  0.00P  
03/28/2015 14:30 MST2.26P  2.25P  13.1P  0.00P  
03/28/2015 14:45 MST2.26P  2.24P  13.1P  0.00P  
03/28/2015 14:59 MST2.26P  2.25P  13.1P  0.00P  
03/28/2015 15:00 MST2.26P  2.25P  13.1P  0.00P  
03/28/2015 15:14 MST2.26P  2.25P  13.1P  0.00P  
03/28/2015 15:15 MST2.26P  2.25P  13.1P  0.00P  
03/28/2015 15:30 MST2.26P  2.24P  13.1P  0.00P  
03/28/2015 15:45 MST2.25P  2.24P  12.6P  0.00P  
03/28/2015 16:00 MST2.26P  2.25P  13.1P  0.00P  
03/28/2015 16:15 MST2.26P  2.25P  13.1P  0.00P  
03/28/2015 16:30 MST2.25P  2.24P  12.6P  0.00P  
03/28/2015 16:45 MST2.25P  2.24P  12.6P  0.00P  
03/28/2015 17:00 MST2.25P  2.23P  12.6P  0.00P  
03/28/2015 17:15 MST2.24P  2.24P  12.1P  0.00P  
03/28/2015 17:30 MST2.25P  2.23P  12.6P  0.00P  
03/28/2015 17:45 MST2.25P  2.25P  12.6P  0.00P  
03/28/2015 18:00 MST2.25P  2.25P  12.6P  0.00P  
03/28/2015 18:15 MST2.24P  2.25P  12.1P  0.00P  
03/28/2015 18:30 MST2.24P  2.25P  12.1P  0.00P  
03/28/2015 18:45 MST2.25P  2.25P  12.6P  0.00P  
03/28/2015 19:00 MST2.25P  2.26P  12.6P  0.00P  
03/28/2015 19:15 MST2.24P  2.25P  12.1P  0.00P  
03/28/2015 19:30 MST2.25P  2.25P  12.6P  0.00P  
03/28/2015 19:45 MST2.24P  2.26P  12.1P  0.00P  
03/28/2015 20:00 MST2.25P  2.26P  12.6P  0.00P  
03/28/2015 20:15 MST2.25P  2.25P  12.6P  0.00P  
03/28/2015 20:30 MST2.26P  2.25P  13.1P  0.00P  
03/28/2015 20:45 MST2.25P  2.25P  12.6P  0.00P  
03/28/2015 21:00 MST2.24P  2.25P  12.1P  0.00P  
03/28/2015 21:15 MST2.25P  2.26P  12.6P  0.00P  
03/28/2015 21:30 MST2.25P  2.25P  12.6P  0.00P  
03/28/2015 21:45 MST2.25P  2.24P  12.6P  0.00P  
03/28/2015 22:00 MST2.25P  2.26P  12.6P  0.00P  
03/28/2015 22:15 MST2.25P  2.26P  12.6P  0.00P  
03/28/2015 22:30 MST2.25P  2.26P  12.6P  0.00P  
03/28/2015 22:45 MST2.25P  2.25P  12.6P  0.00P  
03/28/2015 23:00 MST2.26P  2.25P  13.1P  0.00P  
03/28/2015 23:15 MST2.26P  2.26P  13.1P  0.00P  
03/28/2015 23:30 MST2.26P  2.26P  13.1P  0.00P  
03/28/2015 23:45 MST2.26P  2.25P  13.1P  0.00P  
03/29/2015 00:00 MST2.25P  2.25P  12.6P  0.00P  
03/29/2015 00:15 MST2.25P  2.26P  12.6P  0.00P  
03/29/2015 00:30 MST2.26P  2.26P  13.1P  0.00P  
03/29/2015 00:45 MST2.25P  2.26P  12.6P  0.00P  
03/29/2015 01:00 MST2.25P  2.26P  12.6P  0.00P  
03/29/2015 01:15 MST2.25P  2.26P  12.6P  0.00P  
03/29/2015 01:30 MST2.25P  2.25P  12.6P  0.00P  
03/29/2015 01:45 MST2.25P  2.25P  12.6P  0.00P  
03/29/2015 02:00 MST2.25P  2.25P  12.6P  0.00P  
03/29/2015 02:15 MST2.26P  2.26P  13.1P  0.00P  
03/29/2015 02:30 MST2.25P  2.25P  12.6P  0.00P  
03/29/2015 02:45 MST2.26P  2.26P  13.1P  0.00P  
03/29/2015 03:00 MST2.25P  2.25P  12.6P  0.00P  
03/29/2015 03:15 MST2.26P  2.25P  13.1P  0.00P  
03/29/2015 03:30 MST2.25P  2.25P  12.6P  0.00P  
03/29/2015 03:45 MST2.26P  2.26P  13.1P  0.00P  
03/29/2015 04:00 MST2.25P  2.26P  12.6P  0.00P  
03/29/2015 04:15 MST2.26P  2.26P  13.1P  0.00P  
03/29/2015 04:30 MST2.26P  2.25P  13.1P  0.00P  
03/29/2015 04:45 MST2.26P  2.26P  13.1P  0.00P  
03/29/2015 05:00 MST2.26P  2.26P  13.1P  0.00P  
03/29/2015 05:15 MST2.26P  2.25P  13.1P  0.00P  
03/29/2015 05:30 MST2.26P  2.26P  13.1P  0.00P  
03/29/2015 05:45 MST2.26P  2.25P  13.1P  0.00P  
03/29/2015 06:00 MST2.26P  2.26P  13.1P  0.00P  
03/29/2015 06:15 MST2.26P  2.26P  13.1P  0.00P  
03/29/2015 06:30 MST2.25P  2.25P  12.6P  0.00P  
03/29/2015 06:45 MST2.26P  2.26P  13.1P  0.00P  
03/29/2015 07:00 MST2.26P  2.26P  13.1P  0.00P  
03/29/2015 07:15 MST2.26P  2.26P  13.1P  0.00P  
03/29/2015 07:30 MST2.26P  2.26P  13.1P  0.00P  
03/29/2015 07:45 MST2.26P  2.26P  13.1P  0.00P  
03/29/2015 08:00 MST2.26P  2.25P  13.1P  0.00P  
03/29/2015 08:15 MST2.26P  2.26P  13.1P  0.00P  
03/29/2015 08:30 MST2.26P  2.25P  13.1P  0.00P  
03/29/2015 08:45 MST2.26P  2.26P  13.1P  0.00P  
03/29/2015 09:00 MST2.26P  2.26P  13.1P  0.00P  
03/29/2015 09:15 MST2.26P  2.26P  13.1P  0.00P  
03/29/2015 09:30 MST2.26P  2.25P  13.1P  0.00P  
03/29/2015 09:45 MST2.26P  2.26P  13.1P  0.00P  
03/29/2015 10:00 MST2.26P  2.25P  13.1P  0.00P  
03/29/2015 10:15 MST2.26P  2.26P  13.1P  0.00P  
03/29/2015 10:30 MST2.26P  2.26P  13.1P  0.00P  
03/29/2015 10:45 MST2.26P  2.26P  13.1P  0.00P  
03/29/2015 11:00 MST2.26P  2.25P  13.1P  0.00P  
03/29/2015 11:15 MST2.25P  2.26P  12.6P  0.00P  
03/29/2015 11:30 MST2.26P  2.26P  13.1P  0.00P  
03/29/2015 11:45 MST2.25P  2.26P  12.6P  0.00P  
03/29/2015 12:00 MST2.26P  2.26P  13.1P  0.00P  
03/29/2015 12:15 MST2.25P  2.25P  12.6P  0.00P  
03/29/2015 12:30 MST2.24P  2.25P  12.1P  0.00P  
03/29/2015 12:45 MST2.25P  2.25P  12.6P  0.00P  
03/29/2015 13:00 MST2.26P  2.25P  13.1P  0.00P  
03/29/2015 13:15 MST2.26P  2.25P  13.1P  0.00P  
03/29/2015 13:30 MST2.25P  2.25P  12.6P  0.00P  
03/29/2015 13:45 MST2.25P  2.25P  12.6P  0.00P  
03/29/2015 14:00 MST2.25P  2.24P  12.6P  0.00P  
03/29/2015 14:15 MST2.25P  2.25P  12.6P  0.00P  
03/29/2015 14:30 MST2.25P  2.24P  12.6P  0.00P  
03/29/2015 14:45 MST2.25P  2.24P  12.6P  0.00P  
03/29/2015 14:59 MST2.25P  2.25P  12.6P  0.00P  
03/29/2015 15:00 MST2.25P  2.25P  12.6P  0.00P  
03/29/2015 15:14 MST2.24P  2.24P  12.1P  0.00P  
03/29/2015 15:15 MST2.24P  2.24P  12.1P  0.00P  
03/29/2015 15:30 MST2.25P  2.24P  12.6P  0.00P  
03/29/2015 15:45 MST2.24P  2.24P  12.1P  0.00P  
03/29/2015 16:00 MST2.24P  2.23P  12.1P  0.00P  
03/29/2015 16:15 MST2.24P  2.24P  12.1P  0.00P  
03/29/2015 16:30 MST2.24P  2.24P  12.1P  0.00P  
03/29/2015 16:45 MST2.24P  2.23P  12.1P  0.00P  
03/29/2015 17:00 MST2.24P  2.23P  12.1P  0.00P  
03/29/2015 17:15 MST2.24P  2.23P  12.1P  0.00P  
03/29/2015 17:30 MST2.24P  2.24P  12.1P  0.00P  
03/29/2015 17:45 MST2.24P  2.24P  12.1P  0.00P  
03/29/2015 18:00 MST2.24P  2.24P  12.1P  0.00P  
03/29/2015 18:15 MST2.24P  2.23P  12.1P  0.00P  
03/29/2015 18:30 MST2.24P  2.23P  12.1P  0.00P  
03/29/2015 18:45 MST2.23P  2.24P  11.6P  0.00P  
03/29/2015 19:00 MST2.24P  2.24P  12.1P  0.00P  
03/29/2015 19:15 MST2.24P  2.23P  12.1P  0.00P  
03/29/2015 19:30 MST2.25P  2.24P  12.6P  0.00P  
03/29/2015 19:45 MST2.24P  2.24P  12.1P  0.00P  
03/29/2015 20:00 MST2.25P  2.25P  12.6P  0.00P  
03/29/2015 20:15 MST2.24P  2.24P  12.1P  0.00P  
03/29/2015 20:30 MST2.25P  2.24P  12.6P  0.00P  
03/29/2015 20:45 MST2.25P  2.25P  12.6P  0.00P  
03/29/2015 21:00 MST2.25P  2.24P  12.6P  0.00P  
03/29/2015 21:15 MST2.25P  2.24P  12.6P  0.00P  
03/29/2015 21:30 MST2.25P  2.25P  12.6P  0.00P  
03/29/2015 21:45 MST2.26P  2.24P  13.1P  0.00P  
03/29/2015 22:00 MST2.26P  2.25P  13.1P  0.00P  
03/29/2015 22:15 MST2.25P  2.25P  12.6P  0.00P  
03/29/2015 22:30 MST2.25P  2.25P  12.6P  0.00P  
03/29/2015 22:45 MST2.25P  2.25P  12.6P  0.00P  
03/29/2015 23:00 MST2.25P  2.25P  12.6P  0.00P  

Explanation
  P  Provisional data subject to revision.